Time;durP1;ratioP1;P1;durP2;ratioP2;P2;SDS_P1;SDS_P2;PMS_P1;PMS_P2;Temp;Humidity;BMP_temperature;BMP_pressure;BME280_temperature;BME280_humidity;BME280_pressure;Samples;Min_cycle;Max_cycle;Signal;HPM_P1;HPM_P2
2022/05/26 00:00:04;;;;;;;;;;;;;;;11.75;78.84;99950.05;107811;1270;95744;-64
2022/05/26 00:02:55;;;;;;;;;;;;;;;11.74;78.84;99947.83;106534;1271;126032;-65
2022/05/26 00:05:27;;;;;;;;;;;;;;;11.70;78.66;99944.89;107836;1270;108353;-66
2022/05/26 00:07:58;;;;;;;;;;;;;;;11.66;78.83;99942.92;107667;1271;127255;-66
2022/05/26 00:10:28;;;;;;;;;;;;;;;11.63;78.75;99946.52;106399;1271;97825;-65
2022/05/26 00:12:59;;;;;;;;;;;;;;;11.61;78.83;99947.52;106173;1271;125944;-65
2022/05/26 00:15:30;;;;;;;;;;;;;;;11.59;78.95;99949.33;107808;1271;112977;-65
2022/05/26 00:18:00;;;;;;;;;;;;;;;11.58;78.99;99946.06;107431;1271;109080;-66
2022/05/26 00:20:30;;;;;;;;;;;;;;;11.54;78.98;99943.12;106181;1271;124905;-66
2022/05/26 00:23:01;;;;;;;;;;;;;;;11.50;78.96;99945.17;106249;1271;98269;-66
2022/05/26 00:29:10;;;;;;;;;;;;;;;11.39;79.08;99949.60;106176;1271;112575;-66
2022/05/26 00:31:41;;;;;;;;;;;;;;;11.34;79.30;99948.60;106193;1271;124862;-66
2022/05/26 00:34:12;;;;;;;;;;;;;;;11.32;79.27;99955.66;106228;1271;108931;-66
2022/05/26 00:36:43;;;;;;;;;;;;;;;11.26;79.31;99955.35;106183;1271;98598;-65
2022/05/26 00:39:15;;;;;;;;;;;;;;;11.18;79.42;99955.86;106116;1271;126398;-65
2022/05/26 00:41:47;;;;;;;;;;;;;;;11.10;79.56;99955.61;106163;1271;112515;-66
2022/05/26 00:44:17;;;;;;;;;;;;;;;11.05;79.81;99955.30;106126;1271;124884;-66
2022/05/26 00:46:50;;;;;;;;;;;;;;;11.02;80.01;99952.48;106164;1271;109008;-66
2022/05/26 00:49:24;;;;;;;;;;;;;;;10.97;80.09;99954.25;106158;1271;125000;-66
2022/05/26 00:56:07;;;;;;;;;;;;;;;10.84;80.42;99961.34;105941;1271;124683;-66
2022/05/26 00:58:41;;;;;;;;;;;;;;;10.79;80.48;99960.85;106230;1271;108791;-66
2022/05/26 01:01:13;;;;;;;;;;;;;;;10.73;80.84;99965.55;106903;1273;125286;-66
2022/05/26 01:03:45;;;;;;;;;;;;;;;10.68;80.88;99962.98;106263;1271;97824;-66
2022/05/26 01:10:22;;;;;;;;;;;;;;;10.62;81.35;99962.54;106095;1270;111871;-66
2022/05/26 01:12:52;;;;;;;;;;;;;;;10.58;81.36;99960.54;106128;1271;125341;-65
2022/05/26 01:15:24;;;;;;;;;;;;;;;10.56;81.57;99960.45;106714;1271;109038;-66
2022/05/26 01:18:03;;;;;;;;;;;;;;;10.54;81.67;99960.00;106242;1271;97830;-69
2022/05/26 01:20:39;;;;;;;;;;;;;;;10.52;81.74;99958.70;106250;1271;124737;-66
2022/05/26 01:23:27;;;;;;;;;;;;;;;10.49;81.77;99957.41;107845;1271;111193;-66
2022/05/26 01:26:16;;;;;;;;;;;;;;;10.47;81.95;99956.65;107773;1271;124912;-66
2022/05/26 01:33:16;;;;;;;;;;;;;;;10.40;82.17;99951.31;107101;1275;126567;-66
2022/05/26 01:35:55;;;;;;;;;;;;;;;10.39;82.23;99953.79;107538;1275;96093;-66
2022/05/26 01:38:31;;;;;;;;;;;;;;;10.36;82.26;99958.41;106149;1275;125133;-66
2022/05/26 01:41:06;;;;;;;;;;;;;;;10.33;82.26;99964.09;106140;1275;109227;-65
2022/05/26 01:43:42;;;;;;;;;;;;;;;10.33;82.37;99962.19;106014;1276;124852;-65
2022/05/26 01:46:18;;;;;;;;;;;;;;;10.32;82.42;99961.02;106078;1276;98044;-66
2022/05/26 01:48:52;;;;;;;;;;;;;;;10.29;82.44;99964.92;106073;1276;97731;-65
2022/05/26 01:51:25;;;;;;;;;;;;;;;10.30;82.51;99962.46;106112;1276;112155;-65
2022/05/26 01:54:00;;;;;;;;;;;;;;;10.28;82.51;99963.38;106084;1276;109246;-65
2022/05/26 01:56:32;;;;;;;;;;;;;;;10.27;82.54;99964.46;106987;1276;125607;-66
2022/05/26 01:59:06;;;;;;;;;;;;;;;10.24;82.48;99960.58;107580;1275;96126;-66
2022/05/26 02:01:38;;;;;;;;;;;;;;;10.23;82.57;99963.90;106620;1275;125340;-66
2022/05/26 02:04:10;;;;;;;;;;;;;;;10.23;82.58;99963.05;106089;1276;110166;-67
2022/05/26 02:06:44;;;;;;;;;;;;;;;10.21;82.55;99965.17;106114;1276;107362;-66
2022/05/26 02:09:15;;;;;;;;;;;;;;;10.19;82.62;99961.41;106092;1276;107305;-66
2022/05/26 02:11:46;;;;;;;;;;;;;;;10.18;82.71;99961.61;106263;1271;97810;-66
2022/05/26 02:14:19;;;;;;;;;;;;;;;10.16;82.73;99963.26;106507;1271;125474;-66
2022/05/26 02:16:50;;;;;;;;;;;;;;;10.15;82.62;99957.58;106217;1273;112372;-66
2022/05/26 02:19:22;;;;;;;;;;;;;;;10.14;82.84;99957.07;106144;1271;125115;-66
2022/05/26 02:21:59;;;;;;;;;;;;;;;10.15;82.78;99957.56;106249;1271;108837;-66
2022/05/26 02:24:33;;;;;;;;;;;;;;;10.13;82.85;99957.63;106253;1271;97959;-66
2022/05/26 02:27:05;;;;;;;;;;;;;;;10.12;82.88;99961.30;106175;1271;124708;-67
2022/05/26 02:29:55;;;;;;;;;;;;;;;10.12;82.81;99963.93;107843;1271;111336;-66
2022/05/26 02:32:29;;;;;;;;;;;;;;;10.10;82.83;99966.61;107715;1271;126529;-67
2022/05/26 02:35:01;;;;;;;;;;;;;;;10.11;82.99;99965.17;107771;1271;106961;-66
2022/05/26 02:37:31;;;;;;;;;;;;;;;10.12;82.93;99964.46;106530;1271;125041;-66
2022/05/26 02:40:01;;;;;;;;;;;;;;;10.10;82.91;99961.05;106242;1271;97952;-67
2022/05/26 02:42:33;;;;;;;;;;;;;;;10.08;82.93;99957.81;106198;1272;112176;-66
2022/05/26 02:45:03;;;;;;;;;;;;;;;10.10;83.04;99961.77;106677;1271;124710;-67
2022/05/26 02:47:45;;;;;;;;;;;;;;;10.11;82.95;99965.34;107810;1271;107624;-67
2022/05/26 02:50:22;;;;;;;;;;;;;;;10.13;82.98;99962.70;106326;1273;125172;-66
2022/05/26 02:52:59;;;;;;;;;;;;;;;10.16;82.97;99960.65;106269;1271;97837;-67
2022/05/26 02:55:36;;;;;;;;;;;;;;;10.20;82.83;99963.45;106155;1271;126597;-65
2022/05/26 02:58:11;;;;;;;;;;;;;;;10.25;82.89;99960.70;106259;1271;107409;-67
2022/05/26 03:00:46;;;;;;;;;;;;;;;10.29;82.65;99959.89;106301;1270;108368;-66
2022/05/26 03:03:20;;;;;;;;;;;;;;;10.36;82.69;99956.84;106231;1271;98011;-65
2022/05/26 03:05:53;;;;;;;;;;;;;;;10.40;82.39;99959.45;106270;1271;97838;-67
2022/05/26 03:08:27;;;;;;;;;;;;;;;10.40;82.19;99957.56;106149;1271;124694;-66
2022/05/26 03:11:05;;;;;;;;;;;;;;;10.46;82.24;99957.20;106276;1271;109661;-66
2022/05/26 03:13:36;;;;;;;;;;;;;;;10.50;82.03;99957.23;106164;1271;125000;-66
2022/05/26 03:16:07;;;;;;;;;;;;;;;10.52;81.88;99957.83;106304;1271;99269;-66
2022/05/26 03:18:37;;;;;;;;;;;;;;;10.52;81.74;99956.77;106243;1271;97833;-65
2022/05/26 03:21:08;;;;;;;;;;;;;;;10.55;81.66;99957.71;106190;1271;124436;-66
2022/05/26 03:23:39;;;;;;;;;;;;;;;10.57;81.66;99955.88;106299;1271;108398;-66
2022/05/26 03:26:10;;;;;;;;;;;;;;;10.60;81.72;99958.92;106145;1271;125669;-66
2022/05/26 03:28:40;;;;;;;;;;;;;;;10.63;81.53;99957.95;106234;1271;97887;-66
2022/05/26 03:31:10;;;;;;;;;;;;;;;10.63;81.38;99957.60;106152;1271;125055;-66
2022/05/26 03:42:06;;;;;;;;;;;;;;;10.74;81.48;99963.27;106223;1271;97979;-66
2022/05/26 03:44:36;;;;;;;;;;;;;;;10.77;81.70;99962.30;106400;1270;124014;-65
2022/05/26 03:47:06;;;;;;;;;;;;;;;10.80;81.67;99963.39;106181;1271;112095;-67
2022/05/26 03:49:37;;;;;;;;;;;;;;;10.83;81.78;99967.97;106195;1271;124181;-66
2022/05/26 03:52:08;;;;;;;;;;;;;;;10.88;81.83;99968.15;106314;1271;109052;-66
2022/05/26 03:54:38;;;;;;;;;;;;;;;10.92;82.11;99973.02;107820;1271;96077;-67
2022/05/26 03:57:09;;;;;;;;;;;;;;;10.99;82.18;99973.83;106427;1273;124370;-67
2022/05/26 03:59:42;;;;;;;;;;;;;;;11.01;82.15;99975.84;106294;1271;112100;-66
2022/05/26 04:02:12;;;;;;;;;;;;;;;11.05;82.26;99977.60;106353;1271;124938;-67
2022/05/26 04:04:42;;;;;;;;;;;;;;;11.10;82.46;99973.91;106304;1271;108680;-67
2022/05/26 04:07:13;;;;;;;;;;;;;;;11.14;82.40;99969.21;106175;1271;125011;-66
2022/05/26 04:09:43;;;;;;;;;;;;;;;11.23;82.41;99972.72;106287;1271;97705;-66
2022/05/26 04:12:13;;;;;;;;;;;;;;;11.29;82.37;99974.90;107791;1272;112533;-66
2022/05/26 04:14:44;;;;;;;;;;;;;;;11.38;82.43;99976.46;107737;1271;125413;-66
2022/05/26 04:17:14;;;;;;;;;;;;;;;11.46;82.28;99979.62;107834;1271;106248;-66
2022/05/26 04:19:44;;;;;;;;;;;;;;;11.55;82.35;99980.52;107632;1271;124805;-66
2022/05/26 04:22:18;;;;;;;;;;;;;;;11.64;82.24;99976.27;106295;1271;97929;-65
2022/05/26 04:24:50;;;;;;;;;;;;;;;11.73;82.07;99980.28;106167;1271;125012;-66
2022/05/26 04:27:21;;;;;;;;;;;;;;;11.80;82.00;99974.96;106275;1271;109180;-67
2022/05/26 04:29:51;;;;;;;;;;;;;;;11.86;81.90;99973.50;106275;1271;109042;-66
2022/05/26 04:32:22;;;;;;;;;;;;;;;11.94;81.89;99977.85;106132;1272;124870;-67
2022/05/26 04:34:53;;;;;;;;;;;;;;;12.04;81.79;99975.16;106221;1273;97920;-66
2022/05/26 04:37:24;;;;;;;;;;;;;;;12.13;81.78;99971.65;106188;1270;126094;-66
2022/05/26 04:39:55;;;;;;;;;;;;;;;12.21;81.72;99974.44;106323;1271;109165;-67
2022/05/26 04:42:26;;;;;;;;;;;;;;;12.28;81.42;99974.13;106203;1271;107357;-66
2022/05/26 04:44:57;;;;;;;;;;;;;;;12.39;81.47;99972.45;106151;1271;125351;-66
2022/05/26 04:47:28;;;;;;;;;;;;;;;12.51;81.34;99964.77;106314;1271;97812;-66
2022/05/26 04:49:58;;;;;;;;;;;;;;;12.65;81.28;99964.65;106094;1271;124696;-66
2022/05/26 04:52:28;;;;;;;;;;;;;;;12.78;81.21;99967.71;106221;1271;109039;-66
2022/05/26 04:54:58;;;;;;;;;;;;;;;12.94;80.91;99963.67;106173;1271;125261;-67
2022/05/26 04:57:28;;;;;;;;;;;;;;;13.09;80.64;99962.44;106239;1271;97818;-66
2022/05/26 04:59:59;;;;;;;;;;;;;;;13.22;80.28;99963.39;106288;1271;97742;-67
2022/05/26 05:02:30;;;;;;;;;;;;;;;13.37;79.94;99963.27;106197;1271;124688;-67
2022/05/26 05:05:02;;;;;;;;;;;;;;;13.56;79.90;99965.97;106195;1271;108963;-67
2022/05/26 05:07:33;;;;;;;;;;;;;;;13.76;79.55;99962.55;106115;1271;125515;-67
2022/05/26 05:10:04;;;;;;;;;;;;;;;14.02;79.29;99965.06;106193;1271;98037;-65
2022/05/26 05:12:35;;;;;;;;;;;;;;;14.25;78.48;99966.67;107803;1271;95878;-66
2022/05/26 05:15:08;;;;;;;;;;;;;;;14.42;77.90;99965.48;107700;1271;125858;-65
2022/05/26 05:17:38;;;;;;;;;;;;;;;14.60;77.53;99966.29;107702;1272;109072;-66
2022/05/26 05:20:09;;;;;;;;;;;;;;;14.78;76.93;99969.67;107675;1271;125976;-65
2022/05/26 05:22:41;;;;;;;;;;;;;;;14.93;76.40;99972.02;107060;1271;97812;-66
2022/05/26 05:25:16;;;;;;;;;;;;;;;15.10;75.99;99971.08;106125;1271;125799;-67
2022/05/26 05:27:49;;;;;;;;;;;;;;;15.26;75.60;99975.27;106261;1271;111762;-66
2022/05/26 05:30:22;;;;;;;;;;;;;;;15.48;75.47;99978.61;106195;1271;109030;-67
2022/05/26 05:32:54;;;;;;;;;;;;;;;15.73;74.87;99978.60;107700;1271;125786;-66
2022/05/26 05:35:27;;;;;;;;;;;;;;;16.16;74.81;99975.73;107799;1271;96112;-66
2022/05/26 05:37:58;;;;;;;;;;;;;;;17.00;73.75;99971.81;107781;1271;124355;-65
2022/05/26 05:40:28;;;;;;;;;;;;;;;18.56;71.76;99969.19;107858;1271;112436;-65
2022/05/26 05:43:02;;;;;;;;;;;;;;;20.42;68.46;99962.07;107767;1271;124376;-66
2022/05/26 05:45:33;;;;;;;;;;;;;;;22.00;65.45;99957.64;107861;1271;107713;-66
2022/05/26 05:48:03;;;;;;;;;;;;;;;23.65;61.66;99954.11;107847;1271;96057;-66
2022/05/26 05:50:33;;;;;;;;;;;;;;;24.51;57.88;99946.67;107762;1271;123881;-66
2022/05/26 05:53:04;;;;;;;;;;;;;;;24.18;55.98;99953.14;106626;1271;111289;-67
2022/05/26 05:55:34;;;;;;;;;;;;;;;23.88;55.58;99953.65;106170;1271;124203;-66
2022/05/26 05:58:07;;;;;;;;;;;;;;;24.00;55.60;99953.45;106287;1271;109045;-66
2022/05/26 06:00:37;;;;;;;;;;;;;;;24.61;55.16;99957.39;106229;1271;97854;-66
2022/05/26 06:03:08;;;;;;;;;;;;;;;24.73;53.78;99961.25;106131;1271;124021;-67
2022/05/26 06:05:38;;;;;;;;;;;;;;;25.45;53.00;99954.08;106271;1271;112494;-67
2022/05/26 06:08:09;;;;;;;;;;;;;;;26.67;51.43;99948.24;106140;1271;124323;-68
2022/05/26 06:10:39;;;;;;;;;;;;;;;27.91;49.17;99946.11;106210;1271;108548;-66
2022/05/26 06:13:09;;;;;;;;;;;;;;;28.07;47.16;99949.90;106145;1271;124377;-66
2022/05/26 06:15:45;;;;;;;;;;;;;;;28.01;46.52;99950.74;106251;1271;97820;-66
2022/05/26 06:18:16;;;;;;;;;;;;;;;29.01;46.03;99942.76;106253;1271;111685;-66
2022/05/26 06:20:46;;;;;;;;;;;;;;;30.27;44.10;99947.41;106170;1271;124419;-66
2022/05/26 06:23:19;;;;;;;;;;;;;;;31.09;41.75;99944.31;106221;1271;107214;-66
2022/05/26 06:25:49;;;;;;;;;;;;;;;31.91;40.87;99946.44;106082;1271;125900;-66
2022/05/26 06:31:08;;;;;;;;;;;;;;;32.36;37.61;99938.41;106024;1271;124337;-66
2022/05/26 06:39:26;;;;;;;;;;;;;;;34.04;35.59;99927.17;107061;1271;97956;-67
2022/05/26 06:42:09;;;;;;;;;;;;;;;34.68;34.46;99921.41;107832;1271;96083;-67
2022/05/26 06:44:42;;;;;;;;;;;;;;;34.83;33.11;99922.45;107652;1271;124156;-66
2022/05/26 06:47:13;;;;;;;;;;;;;;;35.08;32.77;99919.27;106694;1271;108897;-66
2022/05/26 06:49:45;;;;;;;;;;;;;;;35.57;32.56;99916.59;106919;1271;124214;-67
2022/05/26 06:52:16;;;;;;;;;;;;;;;36.11;31.64;99918.02;106213;1268;97848;-67
2022/05/26 06:54:47;;;;;;;;;;;;;;;36.29;30.09;99913.46;106280;1271;97841;-66
2022/05/26 06:57:17;;;;;;;;;;;;;;;36.36;29.76;99912.20;107756;1273;111806;-66
2022/05/26 06:59:48;;;;;;;;;;;;;;;36.50;28.92;99912.46;106306;1271;108713;-67
2022/05/26 07:02:18;;;;;;;;;;;;;;;36.36;28.64;99909.31;106150;1271;124449;-67
2022/05/26 07:04:49;;;;;;;;;;;;;;;36.38;28.46;99905.07;106276;1271;97859;-67
2022/05/26 07:07:25;;;;;;;;;;;;;;;36.53;28.38;99905.95;106155;1271;125272;-66
2022/05/26 07:09:56;;;;;;;;;;;;;;;36.49;27.86;99907.04;106290;1270;112848;-66
2022/05/26 07:12:27;;;;;;;;;;;;;;;36.59;27.70;99904.41;106286;1271;108379;-66
2022/05/26 07:14:58;;;;;;;;;;;;;;;36.51;27.31;99904.61;106190;1271;125195;-66
2022/05/26 07:17:29;;;;;;;;;;;;;;;36.62;27.40;99905.85;106272;1271;98479;-67
2022/05/26 07:19:59;;;;;;;;;;;;;;;36.82;27.34;99903.11;106240;1271;124549;-67
2022/05/26 07:22:31;;;;;;;;;;;;;;;36.97;26.40;99902.35;106323;1271;112459;-67
2022/05/26 07:25:02;;;;;;;;;;;;;;;36.87;25.82;99900.33;106155;1273;124455;-66
2022/05/26 07:27:32;;;;;;;;;;;;;;;36.50;25.36;99904.52;106230;1274;108934;-65
2022/05/26 07:30:03;;;;;;;;;;;;;;;36.37;25.93;99904.45;106183;1274;97822;-66
2022/05/26 07:32:33;;;;;;;;;;;;;;;36.31;26.04;99902.90;106133;1271;124092;-66
2022/05/26 07:35:08;;;;;;;;;;;;;;;36.52;26.12;99905.17;106255;1273;111789;-66
2022/05/26 07:43:21;;;;;;;;;;;;;;;36.50;25.64;99902.62;106178;1271;124477;-67
2022/05/26 07:45:52;;;;;;;;;;;;;;;36.53;24.67;99903.86;107761;1271;95995;-67
2022/05/26 07:48:22;;;;;;;;;;;;;;;36.52;24.30;99895.64;107302;1271;112092;-67
2022/05/26 07:50:52;;;;;;;;;;;;;;;36.30;24.41;99896.25;106086;1273;124280;-66
2022/05/26 07:53:23;;;;;;;;;;;;;;;36.40;24.34;99893.56;106215;1271;108258;-66
2022/05/26 07:55:53;;;;;;;;;;;;;;;36.12;23.99;99901.10;106181;1271;124326;-68
2022/05/26 07:58:24;;;;;;;;;;;;;;;35.95;24.15;99899.88;106247;1271;97864;-67
2022/05/26 08:00:54;;;;;;;;;;;;;;;35.75;23.43;99898.32;106158;1273;125120;-67
2022/05/26 08:03:25;;;;;;;;;;;;;;;35.26;23.67;99887.64;107525;1271;109042;-65
2022/05/26 08:05:55;;;;;;;;;;;;;;;35.05;24.32;99888.80;106354;1271;108090;-65
2022/05/26 08:08:26;;;;;;;;;;;;;;;35.32;24.37;99886.15;106094;1271;124364;-65
2022/05/26 08:10:56;;;;;;;;;;;;;;;35.48;24.40;99892.44;106263;1271;98603;-66
2022/05/26 08:13:27;;;;;;;;;;;;;;;35.39;23.68;99886.14;106177;1271;124297;-66
2022/05/26 08:15:57;;;;;;;;;;;;;;;35.18;23.13;99880.96;106252;1271;108396;-66
2022/05/26 08:18:29;;;;;;;;;;;;;;;35.12;23.58;99881.80;106234;1271;108895;-65
2022/05/26 08:21:06;;;;;;;;;;;;;;;34.90;22.73;99882.77;107777;1271;124713;-65
2022/05/26 08:23:36;;;;;;;;;;;;;;;34.51;23.05;99884.46;107787;1271;95841;-66
2022/05/26 08:26:06;;;;;;;;;;;;;;;34.13;23.45;99884.21;107742;1271;125132;-64
2022/05/26 08:28:37;;;;;;;;;;;;;;;33.97;23.52;99884.23;107836;1271;107760;-65
2022/05/26 08:31:08;;;;;;;;;;;;;;;33.99;24.11;99888.81;107748;1271;124716;-66
2022/05/26 08:33:39;;;;;;;;;;;;;;;34.01;24.03;99887.19;107832;1271;96250;-66
2022/05/26 08:36:11;;;;;;;;;;;;;;;33.79;23.73;99884.05;107295;1270;97866;-65
2022/05/26 08:38:41;;;;;;;;;;;;;;;33.67;23.85;99885.88;106163;1271;124454;-65
2022/05/26 08:41:13;;;;;;;;;;;;;;;33.43;23.94;99892.30;106257;1271;109027;-65
2022/05/26 08:43:45;;;;;;;;;;;;;;;33.23;23.92;99890.66;106124;1271;124288;-65
2022/05/26 08:46:17;;;;;;;;;;;;;;;33.15;24.09;99893.80;106241;1271;97862;-66
2022/05/26 08:48:51;;;;;;;;;;;;;;;33.19;23.79;99887.48;106276;1270;98001;-65
2022/05/26 08:51:27;;;;;;;;;;;;;;;33.11;23.39;99888.17;106262;1271;112262;-66
2022/05/26 08:53:59;;;;;;;;;;;;;;;32.87;23.52;99889.65;107854;1271;107663;-67
2022/05/26 08:56:29;;;;;;;;;;;;;;;32.63;23.17;99894.63;107762;1271;125210;-67
2022/05/26 08:59:04;;;;;;;;;;;;;;;31.93;23.66;99895.73;107823;1271;96224;-66
2022/05/26 09:01:34;;;;;;;;;;;;;;;31.15;24.19;99891.73;106931;1271;124237;-66
2022/05/26 09:04:04;;;;;;;;;;;;;;;30.52;25.08;99891.77;107861;1271;111389;-69
2022/05/26 09:12:55;;;;;;;;;;;;;;;30.46;25.92;99893.33;107861;1271;109242;-65
2022/05/26 09:15:09;;;;;;;;;;;;;;;31.69;25.36;99886.16;107611;1270;124829;-65
2022/05/26 09:17:39;;;;;;;;;;;;;;;32.25;24.88;99884.27;107837;1271;112222;-65
2022/05/26 09:20:25;;;;;;;;;;;;;;;32.29;24.22;99892.19;107618;1270;124112;-67
2022/05/26 09:23:08;;;;;;;;;;;;;;;32.25;23.75;99886.31;107817;1271;107868;-66
2022/05/26 09:25:41;;;;;;;;;;;;;;;32.03;23.68;99886.52;106906;1270;124116;-66
2022/05/26 09:28:12;;;;;;;;;;;;;;;31.76;23.66;99891.13;106242;1271;97855;-65
2022/05/26 09:30:42;;;;;;;;;;;;;;;31.55;23.50;99884.70;106282;1271;112455;-66
2022/05/26 09:33:20;;;;;;;;;;;;;;;31.30;23.09;99882.14;106074;1271;124019;-65
2022/05/26 09:35:50;;;;;;;;;;;;;;;30.83;23.31;99887.76;106140;1271;109157;-66
2022/05/26 09:38:31;;;;;;;;;;;;;;;29.97;23.73;99883.69;106148;1271;124250;-65
2022/05/26 09:41:08;;;;;;;;;;;;;;;29.06;24.50;99889.21;106154;1271;97812;-65
2022/05/26 09:43:41;;;;;;;;;;;;;;;28.29;25.14;99888.80;107687;1271;124383;-66
2022/05/26 09:46:15;;;;;;;;;;;;;;;28.04;26.22;99896.06;107826;1271;108743;-66
2022/05/26 09:48:47;;;;;;;;;;;;;;;28.28;26.37;99892.80;107694;1271;109347;-66
2022/05/26 09:51:22;;;;;;;;;;;;;;;28.20;25.66;99885.11;107763;1271;97193;-67
2022/05/26 09:53:53;;;;;;;;;;;;;;;27.80;25.74;99891.20;107351;1271;653859;-66
2022/05/26 09:56:31;;;;;;;;;;;;;;;27.18;26.28;99885.02;107738;1271;124401;-66
2022/05/26 09:59:21;;;;;;;;;;;;;;;26.67;26.74;99889.42;107859;1271;109122;-65
2022/05/26 10:01:53;;;;;;;;;;;;;;;26.16;27.79;99895.69;107736;1271;124124;-66
2022/05/26 10:04:28;;;;;;;;;;;;;;;25.60;28.22;99897.38;107808;1271;96292;-66
2022/05/26 10:07:01;;;;;;;;;;;;;;;25.04;28.77;99889.15;107663;1270;124048;-66
2022/05/26 10:09:36;;;;;;;;;;;;;;;24.59;29.44;99889.05;106813;1271;113303;-66
2022/05/26 10:12:10;;;;;;;;;;;;;;;24.44;29.94;99893.91;106241;1271;108017;-66
2022/05/26 10:14:50;;;;;;;;;;;;;;;24.58;30.09;99892.45;106806;1271;124190;-66
2022/05/26 10:17:28;;;;;;;;;;;;;;;24.49;29.85;99890.36;106199;1270;97841;-64
2022/05/26 10:20:11;;;;;;;;;;;;;;;24.35;30.03;99892.77;106171;1271;124067;-66
2022/05/26 10:23:03;;;;;;;;;;;;;;;24.11;30.56;99900.30;106280;1271;112409;-66
2022/05/26 10:25:35;;;;;;;;;;;;;;;23.86;31.21;99899.89;106151;1271;124421;-68
2022/05/26 10:31:32;;;;;;;;;;;;;;;23.37;31.59;99886.26;102839;1309;645701;-69
2022/05/26 10:34:15;;;;;;;;;;;;;;;23.17;31.95;99891.83;105788;1282;94402;-67
2022/05/26 10:36:53;;;;;;;;;;;;;;;23.02;32.18;99891.95;106929;1281;93711;-67
2022/05/26 10:39:26;;;;;;;;;;;;;;;22.91;32.76;99894.97;106913;1282;106839;-62
2022/05/26 10:41:58;;;;;;;;;;;;;;;22.70;33.19;99894.33;106977;1281;108910;-63
2022/05/26 10:44:28;;;;;;;;;;;;;;;22.54;33.94;99892.76;106782;1279;199579;-67
2022/05/26 10:47:05;;;;;;;;;;;;;;;22.48;34.23;99883.77;107250;1279;92733;-67
2022/05/26 10:49:37;;;;;;;;;;;;;;;22.51;34.28;99885.27;106538;1279;123508;-68
2022/05/26 10:52:10;;;;;;;;;;;;;;;22.54;34.10;99893.09;105897;1279;108110;-69
2022/05/26 10:54:40;;;;;;;;;;;;;;;22.45;34.13;99887.91;107162;1279;109047;-71
2022/05/26 10:57:10;;;;;;;;;;;;;;;22.23;34.52;99890.36;106032;1279;123596;-70
2022/05/26 10:59:42;;;;;;;;;;;;;;;21.98;34.66;99893.52;105752;1280;95138;-70
2022/05/26 11:02:14;;;;;;;;;;;;;;;21.82;34.92;99896.70;106135;1279;124007;-68
2022/05/26 11:04:46;;;;;;;;;;;;;;;21.66;35.13;99894.85;105817;1280;110742;-71
2022/05/26 11:07:17;;;;;;;;;;;;;;;21.41;35.38;99897.45;105701;1280;124821;-67
2022/05/26 11:09:49;;;;;;;;;;;;;;;21.17;35.96;99901.89;105948;1277;109158;-69
2022/05/26 11:12:20;;;;;;;;;;;;;;;20.97;36.88;99899.60;105913;1277;95223;-71
2022/05/26 11:17:39;;;;;;;;;;;;;;;21.06;38.03;99902.95;107432;1276;108716;-69
2022/05/26 11:20:09;;;;;;;;;;;;;;;21.35;38.27;99899.86;107382;1277;125920;-69
2022/05/26 11:22:37;;;;;;;;;;;;;;;21.68;38.43;99901.38;107387;1277;109085;-70
2022/05/26 11:25:05;;;;;;;;;;;;;;;21.88;37.91;99898.98;107340;1277;123739;-69
2022/05/26 11:27:34;;;;;;;;;;;;;;;22.06;37.34;99890.93;107385;1277;93596;-68
2022/05/26 11:30:03;;;;;;;;;;;;;;;22.06;37.17;99894.32;107495;1276;107796;-68
2022/05/26 11:38:15;;;;;;;;;;;;;;;21.67;37.88;99901.95;105857;1276;123933;-68
2022/05/26 11:40:47;;;;;;;;;;;;;;;21.78;37.86;99903.52;106069;1273;95244;-67
2022/05/26 11:43:24;;;;;;;;;;;;;;;21.95;37.96;99901.38;106078;1273;123603;-69
2022/05/26 11:45:53;;;;;;;;;;;;;;;22.00;38.12;99897.41;106279;1273;108320;-69
2022/05/26 11:48:43;;;;;;;;;;;;;;;22.06;38.10;99895.70;106110;1273;108481;-69
2022/05/26 11:51:28;;;;;;;;;;;;;;;22.20;38.27;99893.11;106738;1271;124085;-68
2022/05/26 11:53:56;;;;;;;;;;;;;;;22.39;38.01;99881.86;106306;1271;95213;-69
2022/05/26 11:56:37;;;;;;;;;;;;;;;22.64;37.58;99873.15;106090;1273;123842;-69
2022/05/26 11:59:21;;;;;;;;;;;;;;;22.78;37.42;99875.42;106173;1273;108235;-68
2022/05/26 12:02:08;;;;;;;;;;;;;;;22.80;37.38;99872.22;107621;1273;125963;-69
2022/05/26 12:04:37;;;;;;;;;;;;;;;22.66;37.55;99867.25;107674;1272;93602;-69
2022/05/26 12:07:06;;;;;;;;;;;;;;;22.55;37.66;99874.57;107580;1273;123564;-69
2022/05/26 12:09:36;;;;;;;;;;;;;;;22.45;37.33;99869.11;107765;1272;108733;-69
2022/05/26 12:12:06;;;;;;;;;;;;;;;22.38;37.86;99868.71;107778;1272;109337;-69
2022/05/26 12:14:37;;;;;;;;;;;;;;;22.55;37.70;99869.81;107648;1272;123510;-69
2022/05/26 12:17:25;;;;;;;;;;;;;;;22.67;37.04;99859.01;107711;1272;93352;-71
2022/05/26 12:19:53;;;;;;;;;;;;;;;22.66;36.80;99863.92;107720;1271;123995;-71
2022/05/26 12:22:23;;;;;;;;;;;;;;;22.75;36.43;99861.14;107765;1272;109532;-71
2022/05/26 12:24:59;;;;;;;;;;;;;;;22.93;35.32;99865.77;107701;1272;123826;-71
2022/05/26 12:27:45;;;;;;;;;;;;;;;22.97;35.02;99863.98;106548;1273;109091;-70
2022/05/26 12:30:28;;;;;;;;;;;;;;;22.97;35.13;99868.23;106134;1273;95199;-70
2022/05/26 12:32:56;;;;;;;;;;;;;;;22.99;35.23;99861.38;106152;1272;124639;-69
2022/05/26 12:35:29;;;;;;;;;;;;;;;23.02;35.03;99857.54;106086;1273;109973;-67
2022/05/26 12:38:02;;;;;;;;;;;;;;;22.97;35.18;99863.97;106593;1272;124146;-68
2022/05/26 12:40:44;;;;;;;;;;;;;;;22.98;35.54;99854.34;107793;1273;108209;-68
2022/05/26 12:43:37;;;;;;;;;;;;;;;23.07;35.68;99853.20;107652;1271;124774;-68
2022/05/26 12:46:10;;;;;;;;;;;;;;;23.21;35.39;99852.23;106355;1273;95731;-68
2022/05/26 12:48:46;;;;;;;;;;;;;;;23.23;35.50;99854.02;106217;1273;109950;-68
2022/05/26 12:51:13;;;;;;;;;;;;;;;23.20;35.85;99863.50;107788;1272;107848;-70
2022/05/26 12:53:47;;;;;;;;;;;;;;;23.19;35.77;99859.30;107746;1272;93890;-71
2022/05/26 12:56:19;;;;;;;;;;;;;;;23.11;35.89;99857.95;107646;1272;123523;-69
2022/05/26 12:58:49;;;;;;;;;;;;;;;23.03;36.09;99853.31;107733;1272;94043;-69
2022/05/26 13:01:19;;;;;;;;;;;;;;;22.81;36.05;99843.58;107654;1272;123852;-69
2022/05/26 13:03:51;;;;;;;;;;;;;;;22.51;36.39;99840.38;107224;1273;107987;-68
2022/05/26 13:06:26;;;;;;;;;;;;;;;22.42;36.90;99846.01;107830;1273;107621;-69
2022/05/26 13:08:55;;;;;;;;;;;;;;;22.47;36.98;99836.15;107712;1272;123476;-70
2022/05/26 13:11:25;;;;;;;;;;;;;;;22.44;36.74;99834.45;106391;1273;95545;-70
2022/05/26 13:13:56;;;;;;;;;;;;;;;22.37;37.04;99837.95;106156;1272;123451;-71
2022/05/26 13:16:29;;;;;;;;;;;;;;;22.29;36.97;99837.01;106230;1273;107995;-68
2022/05/26 13:19:07;;;;;;;;;;;;;;;22.18;36.98;99839.21;107629;1272;124814;-70
2022/05/26 13:21:35;;;;;;;;;;;;;;;22.19;37.60;99835.42;107390;1272;95148;-69
2022/05/26 13:24:03;;;;;;;;;;;;;;;22.24;37.49;99835.35;106205;1273;95101;-70
2022/05/26 13:26:30;;;;;;;;;;;;;;;22.19;37.02;99824.80;107687;1272;124621;-70
2022/05/26 13:29:00;;;;;;;;;;;;;;;22.13;37.12;99822.98;106664;1273;108229;-69
2022/05/26 13:34:14;;;;;;;;;;;;;;;22.15;37.59;99825.89;106206;1272;96058;-67
2022/05/26 13:36:43;;;;;;;;;;;;;;;22.18;37.60;99823.95;106149;1272;95224;-69
2022/05/26 13:39:11;;;;;;;;;;;;;;;22.21;37.43;99823.80;107644;1271;123553;-69
2022/05/26 13:41:42;;;;;;;;;;;;;;;22.17;37.39;99819.81;106778;1271;108862;-68
2022/05/26 13:44:13;;;;;;;;;;;;;;;22.10;37.37;99822.38;106065;1273;123676;-69
2022/05/26 13:46:43;;;;;;;;;;;;;;;21.97;37.66;99830.56;106208;1273;95230;-68
2022/05/26 13:49:32;;;;;;;;;;;;;;;21.89;37.77;99823.33;106384;1271;123737;-68
2022/05/26 13:52:00;;;;;;;;;;;;;;;21.87;37.80;99817.11;107824;1272;109879;-69
2022/05/26 13:54:29;;;;;;;;;;;;;;;21.90;37.47;99809.44;106260;1273;108698;-70